createdAt,value
2017-03-22T00:00:35.696Z,0
2017-03-22T00:01:16.280Z,0
2017-03-22T00:01:56.874Z,0
2017-03-22T00:02:37.455Z,0
2017-03-22T00:03:18.026Z,0
2017-03-22T00:03:58.603Z,0
2017-03-22T00:04:39.192Z,0
2017-03-22T00:05:19.765Z,0
2017-03-22T00:06:00.351Z,0
2017-03-22T00:06:40.928Z,0
2017-03-22T00:07:21.533Z,0
2017-03-22T00:08:02.092Z,0
2017-03-22T00:08:42.665Z,0
2017-03-22T00:09:23.241Z,0
2017-03-22T00:10:03.826Z,0
2017-03-22T00:10:44.417Z,0
2017-03-22T00:12:42.132Z,0
2017-03-22T00:13:22.712Z,0
2017-03-22T00:14:03.291Z,0
2017-03-22T00:14:43.871Z,0
2017-03-22T00:15:24.451Z,0
2017-03-22T00:16:05.036Z,0
2017-03-22T00:16:45.623Z,0
2017-03-22T00:17:26.206Z,0
2017-03-22T00:18:06.784Z,0
2017-03-22T00:18:47.376Z,0
2017-03-22T00:19:27.942Z,0
2017-03-22T00:20:08.523Z,0
2017-03-22T00:20:49.106Z,0
2017-03-22T00:21:29.689Z,0
2017-03-22T00:22:10.265Z,0
2017-03-22T00:22:50.845Z,0
2017-03-22T00:23:31.427Z,0
2017-03-22T00:24:12.008Z,0
2017-03-22T00:24:52.585Z,0
2017-03-22T00:25:33.174Z,0
2017-03-22T00:27:51.111Z,0
2017-03-22T00:28:31.697Z,0
2017-03-22T00:29:12.275Z,0
2017-03-22T00:29:52.861Z,0
2017-03-22T00:30:33.444Z,0
2017-03-22T00:31:14.027Z,0
2017-03-22T00:31:54.600Z,0
2017-03-22T00:32:35.174Z,0
2017-03-22T00:33:15.760Z,0
2017-03-22T00:33:56.340Z,0
2017-03-22T00:34:36.922Z,0
2017-03-22T00:35:17.491Z,0
2017-03-22T00:35:58.077Z,0
2017-03-22T00:36:38.660Z,0
2017-03-22T00:37:19.243Z,0
2017-03-22T00:37:59.816Z,0
2017-03-22T00:38:40.401Z,0
2017-03-22T00:39:20.976Z,0
2017-03-22T00:40:01.553Z,0
2017-03-22T00:40:42.127Z,0
2017-03-22T00:41:22.701Z,0
2017-03-22T00:42:03.291Z,0
2017-03-22T00:44:28.720Z,0
2017-03-22T00:45:09.299Z,0
2017-03-22T00:45:49.872Z,0
2017-03-22T00:46:30.447Z,0
2017-03-22T00:47:11.035Z,0
2017-03-22T00:47:51.609Z,0
2017-03-22T00:48:32.187Z,0
2017-03-22T00:49:12.777Z,0
2017-03-22T00:49:53.348Z,0
2017-03-22T00:50:33.931Z,0
2017-03-22T00:51:14.511Z,0
2017-03-22T00:51:55.093Z,0
2017-03-22T00:52:35.687Z,0
2017-03-22T00:53:16.247Z,0
2017-03-22T00:53:56.822Z,0
2017-03-22T00:54:37.407Z,0
2017-03-22T00:55:17.976Z,0
2017-03-22T00:55:58.561Z,0
2017-03-22T00:56:39.151Z,0
2017-03-22T00:57:19.727Z,0
2017-03-22T00:58:00.312Z,0
2017-03-22T00:58:40.881Z,0
2017-03-22T00:59:21.501Z,0
2017-03-22T01:00:02.045Z,0
2017-03-22T01:00:42.631Z,0
2017-03-22T01:01:23.213Z,0
2017-03-22T01:02:03.791Z,0
2017-03-22T01:02:44.366Z,0
2017-03-22T01:03:24.942Z,0
2017-03-22T01:05:58.136Z,0
2017-03-22T01:06:38.719Z,0
2017-03-22T01:07:19.299Z,0
2017-03-22T01:07:59.885Z,0
2017-03-22T01:08:40.462Z,0
2017-03-22T01:09:21.042Z,0
2017-03-22T01:10:01.622Z,0
2017-03-22T01:10:42.202Z,0
2017-03-22T01:11:22.783Z,0
2017-03-22T01:12:03.361Z,0
2017-03-22T01:12:43.944Z,0
2017-03-22T01:13:24.537Z,0
2017-03-22T01:14:05.108Z,0
2017-03-22T01:14:45.691Z,0
2017-03-22T01:15:26.266Z,0
2017-03-22T01:16:06.846Z,0
2017-03-22T01:16:47.412Z,0
2017-03-22T01:17:27.989Z,0
2017-03-22T01:18:08.575Z,0
2017-03-22T01:18:49.154Z,0
2017-03-22T01:19:29.716Z,0
2017-03-22T01:20:10.293Z,0
2017-03-22T01:20:50.873Z,0
2017-03-22T01:21:31.446Z,0
2017-03-22T01:22:12.027Z,0
2017-03-22T01:22:52.604Z,0
2017-03-22T01:23:33.191Z,0
2017-03-22T01:24:13.777Z,0
2017-03-22T01:24:54.354Z,0
2017-03-22T01:25:34.933Z,0
2017-03-22T01:26:15.505Z,0
2017-03-22T01:26:56.091Z,0
2017-03-22T01:27:36.667Z,0
2017-03-22T01:28:17.250Z,0
2017-03-22T01:28:57.828Z,0
2017-03-22T01:29:38.406Z,0
2017-03-22T01:30:18.995Z,0
2017-03-22T01:30:59.573Z,0
2017-03-22T01:31:40.154Z,0
2017-03-22T01:32:20.743Z,0
2017-03-22T01:33:01.322Z,0
2017-03-22T01:33:41.903Z,0
2017-03-22T01:34:22.476Z,0
2017-03-22T01:35:03.053Z,0
2017-03-22T01:35:43.626Z,0
2017-03-22T01:36:24.209Z,0
2017-03-22T01:37:04.793Z,0
2017-03-22T01:37:45.386Z,0
2017-03-22T01:38:25.948Z,0
2017-03-22T01:39:06.531Z,0
2017-03-22T01:39:47.114Z,0
2017-03-22T01:40:27.690Z,0
2017-03-22T01:41:08.268Z,0
2017-03-22T01:41:48.851Z,0
2017-03-22T01:42:29.431Z,0
2017-03-22T01:43:10.017Z,0
2017-03-22T01:43:50.648Z,0
2017-03-22T01:44:31.222Z,0
2017-03-22T01:45:11.800Z,0
2017-03-22T01:45:52.383Z,0
2017-03-22T01:46:32.964Z,0
2017-03-22T01:47:13.550Z,0
2017-03-22T01:47:54.123Z,0
2017-03-22T01:48:34.714Z,0
2017-03-22T01:49:15.290Z,0
2017-03-22T01:49:55.875Z,0
2017-03-22T01:50:36.459Z,0
2017-03-22T01:51:17.036Z,0
2017-03-22T01:51:57.621Z,0
2017-03-22T01:52:38.208Z,0
2017-03-22T01:53:18.791Z,0
2017-03-22T01:53:59.367Z,0
2017-03-22T01:54:39.949Z,0
2017-03-22T01:55:20.542Z,0
2017-03-22T01:56:01.126Z,0
2017-03-22T01:56:41.707Z,0
2017-03-22T01:57:22.300Z,0
2017-03-22T01:59:40.232Z,0
2017-03-22T02:00:20.821Z,0
2017-03-22T02:01:01.399Z,0
2017-03-22T02:01:56.622Z,0
2017-03-22T02:02:37.209Z,0
2017-03-22T02:03:17.789Z,0
2017-03-22T02:03:58.365Z,0
2017-03-22T02:04:38.946Z,0
2017-03-22T02:05:19.523Z,0
2017-03-22T02:06:00.104Z,0
2017-03-22T02:06:40.691Z,0
2017-03-22T02:07:21.270Z,0
2017-03-22T02:08:01.851Z,0
2017-03-22T02:08:42.429Z,0
2017-03-22T02:09:23.010Z,0
2017-03-22T02:10:03.600Z,0
2017-03-22T02:10:44.178Z,0
2017-03-22T02:11:24.751Z,0
2017-03-22T02:12:05.333Z,0
2017-03-22T02:12:45.920Z,0
2017-03-22T02:13:26.505Z,0
2017-03-22T02:14:07.082Z,0
2017-03-22T02:14:47.666Z,0
2017-03-22T02:15:28.243Z,0
2017-03-22T02:16:08.813Z,0
2017-03-22T02:16:49.401Z,0
2017-03-22T02:17:29.979Z,0
2017-03-22T02:18:12.154Z,0
2017-03-22T02:18:51.466Z,0
2017-03-22T02:19:32.053Z,0
2017-03-22T02:20:12.617Z,0
2017-03-22T02:21:08.149Z,0
2017-03-22T02:21:48.737Z,0
2017-03-22T02:22:29.312Z,0
2017-03-22T02:23:09.894Z,0
2017-03-22T02:23:50.470Z,0
2017-03-22T02:24:31.044Z,0
2017-03-22T02:25:11.614Z,0
2017-03-22T02:25:52.197Z,0
2017-03-22T02:26:32.773Z,0
2017-03-22T02:27:13.357Z,0
2017-03-22T02:27:53.937Z,0
2017-03-22T02:28:34.520Z,0
2017-03-22T02:29:15.109Z,0
2017-03-22T02:29:55.687Z,0
2017-03-22T02:30:36.260Z,0
2017-03-22T02:31:16.841Z,0
2017-03-22T02:31:57.420Z,0
2017-03-22T02:32:37.998Z,0
2017-03-22T02:33:18.577Z,0
2017-03-22T02:33:59.163Z,0
2017-03-22T02:34:39.741Z,0
2017-03-22T02:35:20.323Z,0
2017-03-22T02:36:00.904Z,0
2017-03-22T02:36:41.479Z,0
2017-03-22T02:37:22.063Z,0
2017-03-22T02:38:02.640Z,0
2017-03-22T02:38:43.219Z,0
2017-03-22T02:39:23.796Z,0
2017-03-22T02:40:04.377Z,0
2017-03-22T02:40:44.956Z,0
2017-03-22T02:41:25.528Z,0
2017-03-22T02:42:06.107Z,0
2017-03-22T02:42:46.679Z,0
2017-03-22T02:43:27.263Z,0
2017-03-22T02:44:07.852Z,0
2017-03-22T02:44:48.434Z,0
2017-03-22T02:45:29.022Z,0
2017-03-22T02:46:09.593Z,0
2017-03-22T02:46:50.181Z,0
2017-03-22T02:47:30.753Z,0
2017-03-22T02:48:11.339Z,0
2017-03-22T02:48:51.919Z,0
2017-03-22T02:49:32.501Z,0
2017-03-22T02:50:13.079Z,0
2017-03-22T02:50:53.666Z,0
2017-03-22T02:51:34.253Z,0
2017-03-22T02:52:14.841Z,0
2017-03-22T02:52:55.454Z,0
2017-03-22T02:53:50.661Z,0
2017-03-22T02:54:31.245Z,0
2017-03-22T02:55:11.812Z,0
2017-03-22T02:55:52.382Z,0
2017-03-22T02:56:32.968Z,0
2017-03-22T02:57:13.549Z,0
2017-03-22T02:57:54.128Z,0
2017-03-22T03:00:27.312Z,0
2017-03-22T03:01:07.908Z,0
2017-03-22T03:01:48.486Z,0
2017-03-22T03:02:29.074Z,0
2017-03-22T03:03:09.642Z,0
2017-03-22T03:03:50.228Z,0
2017-03-22T03:04:30.803Z,0
2017-03-22T03:06:30.019Z,0
2017-03-22T03:07:10.583Z,0
2017-03-22T03:07:51.162Z,0
2017-03-22T03:08:31.772Z,0
2017-03-22T03:09:12.319Z,0
2017-03-22T03:09:52.902Z,0
2017-03-22T03:10:48.198Z,0
2017-03-22T03:11:28.766Z,0
2017-03-22T03:12:09.342Z,0
2017-03-22T03:12:49.913Z,0
2017-03-22T03:13:30.499Z,0
2017-03-22T03:14:11.077Z,0
2017-03-22T03:14:51.659Z,0
2017-03-22T03:15:32.235Z,0
2017-03-22T03:16:12.807Z,0
2017-03-22T03:16:53.380Z,0
2017-03-22T03:17:33.967Z,0
2017-03-22T03:18:14.553Z,0
2017-03-22T03:18:55.127Z,0
2017-03-22T03:19:35.700Z,0
2017-03-22T03:20:16.284Z,0
2017-03-22T03:20:56.868Z,0
2017-03-22T03:21:37.449Z,0
2017-03-22T03:22:18.033Z,0
2017-03-22T03:22:58.600Z,0
2017-03-22T03:23:39.173Z,0
2017-03-22T03:24:19.759Z,0
2017-03-22T03:25:00.326Z,0
2017-03-22T03:25:40.913Z,0
2017-03-22T03:26:21.489Z,0
2017-03-22T03:27:02.070Z,0
2017-03-22T03:27:42.654Z,0
2017-03-22T03:28:23.236Z,0
2017-03-22T03:29:03.824Z,0
2017-03-22T03:29:44.477Z,0
2017-03-22T03:30:25.055Z,0
2017-03-22T03:31:05.637Z,0
2017-03-22T03:31:46.218Z,0
2017-03-22T03:32:26.807Z,0
2017-03-22T03:33:07.387Z,0
2017-03-22T03:33:47.956Z,0
2017-03-22T03:34:28.551Z,0
2017-03-22T03:35:09.126Z,0
2017-03-22T03:35:49.702Z,0
2017-03-22T03:36:30.284Z,0
2017-03-22T03:37:10.865Z,0
2017-03-22T03:37:51.446Z,0
2017-03-22T03:38:32.023Z,0
2017-03-22T03:39:12.598Z,0
2017-03-22T03:39:53.174Z,0
2017-03-22T03:40:33.761Z,0
2017-03-22T03:41:14.338Z,0
2017-03-22T03:41:54.925Z,0
2017-03-22T03:42:35.500Z,0
2017-03-22T03:43:16.079Z,0
2017-03-22T03:43:56.656Z,0
2017-03-22T03:44:37.248Z,0
2017-03-22T03:45:17.830Z,0
2017-03-22T03:45:58.413Z,0
2017-03-22T03:46:38.998Z,0
2017-03-22T03:47:19.579Z,0
2017-03-22T03:48:00.162Z,0
2017-03-22T03:48:40.734Z,0
2017-03-22T03:49:21.315Z,0
2017-03-22T03:50:01.907Z,0
2017-03-22T03:50:42.492Z,0
2017-03-22T03:51:23.046Z,0
2017-03-22T03:52:03.628Z,0
2017-03-22T03:52:44.210Z,0
2017-03-22T03:53:24.776Z,0
2017-03-22T03:54:05.367Z,0
2017-03-22T03:54:45.937Z,0
2017-03-22T03:55:26.525Z,0
2017-03-22T03:56:07.111Z,0
2017-03-22T03:56:47.696Z,0
2017-03-22T03:57:28.275Z,0
2017-03-22T03:58:08.855Z,0
2017-03-22T03:58:49.422Z,0
2017-03-22T03:59:30.263Z,0
2017-03-22T04:00:10.818Z,0
2017-03-22T04:00:51.396Z,0
2017-03-22T04:01:31.968Z,0
2017-03-22T04:02:12.566Z,0
2017-03-22T04:02:53.151Z,0
2017-03-22T04:03:33.734Z,0
2017-03-22T04:04:14.318Z,0
2017-03-22T04:04:54.909Z,0
2017-03-22T04:05:35.486Z,0
2017-03-22T04:06:16.068Z,0
2017-03-22T04:06:56.645Z,0
2017-03-22T04:07:37.312Z,0
2017-03-22T04:08:17.914Z,0
2017-03-22T04:08:58.495Z,0
2017-03-22T04:09:53.987Z,0
2017-03-22T04:10:34.557Z,0
2017-03-22T04:11:15.142Z,0
2017-03-22T04:11:55.728Z,0
2017-03-22T04:12:36.302Z,0
2017-03-22T04:13:16.873Z,0
2017-03-22T04:13:57.443Z,0
2017-03-22T04:14:38.022Z,0
2017-03-22T04:15:18.602Z,0
2017-03-22T04:15:59.181Z,0
2017-03-22T04:16:39.760Z,0
2017-03-22T04:17:20.348Z,0
2017-03-22T04:18:00.933Z,0
2017-03-22T04:18:41.497Z,0
2017-03-22T04:19:22.078Z,0
2017-03-22T04:20:02.663Z,0
2017-03-22T04:20:43.251Z,0
2017-03-22T04:21:23.831Z,0
2017-03-22T04:22:04.548Z,0
2017-03-22T04:22:45.447Z,0
2017-03-22T04:23:26.029Z,0
2017-03-22T04:24:06.765Z,0
2017-03-22T04:24:47.448Z,0
2017-03-22T04:25:28.026Z,0
2017-03-22T04:26:08.605Z,0
2017-03-22T04:26:49.221Z,0
2017-03-22T04:27:29.808Z,0
2017-03-22T04:28:10.384Z,0
2017-03-22T04:28:50.975Z,0
2017-03-22T04:29:31.829Z,0
2017-03-22T04:30:12.551Z,0
2017-03-22T04:30:53.256Z,0
2017-03-22T04:31:34.127Z,0
2017-03-22T04:32:14.692Z,0
2017-03-22T04:32:55.436Z,0
2017-03-22T04:33:36.558Z,0
2017-03-22T04:34:17.245Z,0
2017-03-22T04:34:58.125Z,0
2017-03-22T04:35:39.173Z,0
2017-03-22T04:36:20.334Z,0
2017-03-22T04:37:01.078Z,0
2017-03-22T04:37:41.662Z,0
2017-03-22T04:38:22.603Z,0
2017-03-22T04:39:03.683Z,0
2017-03-22T04:39:44.352Z,0
2017-03-22T04:40:25.192Z,0
2017-03-22T04:43:15.243Z,0
2017-03-22T04:43:56.350Z,0
2017-03-22T04:44:37.117Z,0
2017-03-22T04:45:18.009Z,0
2017-03-22T04:45:58.590Z,0
2017-03-22T04:46:39.190Z,0
2017-03-22T04:47:19.748Z,0
2017-03-22T04:48:00.326Z,0
2017-03-22T04:48:40.912Z,0
2017-03-22T04:49:21.486Z,0
2017-03-22T04:50:02.071Z,0
2017-03-22T04:50:42.641Z,0
2017-03-22T04:51:23.231Z,0
2017-03-22T04:52:03.804Z,0
2017-03-22T04:52:44.471Z,0
2017-03-22T04:53:29.720Z,0
2017-03-22T04:54:10.301Z,0
2017-03-22T04:54:50.881Z,0
2017-03-22T04:55:31.448Z,0
2017-03-22T04:56:12.023Z,0
2017-03-22T04:56:52.613Z,0
2017-03-22T04:57:33.192Z,4
2017-03-22T04:58:13.799Z,4
2017-03-22T04:58:54.356Z,4
2017-03-22T04:59:34.915Z,4
2017-03-22T05:00:15.497Z,4
2017-03-22T05:00:56.078Z,4
2017-03-22T05:01:36.652Z,4
2017-03-22T05:02:17.232Z,4
2017-03-22T05:02:57.805Z,4
2017-03-22T05:03:38.391Z,8
2017-03-22T05:04:18.972Z,8
2017-03-22T05:04:59.549Z,4
2017-03-22T05:05:40.125Z,8
2017-03-22T05:06:20.711Z,8
2017-03-22T05:07:01.285Z,12
2017-03-22T05:07:41.873Z,8
2017-03-22T05:08:22.447Z,12
2017-03-22T05:09:03.027Z,12
2017-03-22T05:09:43.612Z,16
2017-03-22T05:10:24.174Z,12
2017-03-22T05:11:04.757Z,16
2017-03-22T05:11:45.335Z,20
2017-03-22T05:12:25.918Z,16
2017-03-22T05:13:06.498Z,20
2017-03-22T05:13:47.073Z,20
2017-03-22T05:14:27.651Z,24
2017-03-22T05:15:08.246Z,24
2017-03-22T05:15:48.822Z,32
2017-03-22T05:16:29.399Z,28
2017-03-22T05:17:09.979Z,28
2017-03-22T05:17:50.563Z,28
2017-03-22T05:18:31.147Z,36
2017-03-22T05:19:11.697Z,36
2017-03-22T05:19:52.282Z,36
2017-03-22T05:20:32.849Z,36
2017-03-22T05:21:13.428Z,36
2017-03-22T05:21:54.013Z,40
2017-03-22T05:22:34.604Z,40
2017-03-22T05:24:32.300Z,44
2017-03-22T05:25:12.877Z,44
2017-03-22T05:25:53.464Z,44
2017-03-22T05:26:34.067Z,48
2017-03-22T05:27:14.580Z,48
2017-03-22T05:27:55.119Z,52
2017-03-22T05:28:35.659Z,52
2017-03-22T05:29:16.234Z,56
2017-03-22T05:29:56.774Z,56
2017-03-22T05:30:37.347Z,52
2017-03-22T05:31:17.929Z,60
2017-03-22T05:31:58.493Z,60
2017-03-22T05:32:39.057Z,60
2017-03-22T05:33:19.640Z,68
2017-03-22T05:34:00.219Z,68
2017-03-22T05:34:40.808Z,72
2017-03-22T05:35:21.389Z,76
2017-03-22T05:36:01.969Z,76
2017-03-22T05:36:42.546Z,88
2017-03-22T05:37:23.134Z,96
2017-03-22T05:38:03.717Z,104
2017-03-22T05:38:44.246Z,108
2017-03-22T05:39:24.835Z,112
2017-03-22T05:40:05.407Z,116
2017-03-22T05:40:45.927Z,128
2017-03-22T05:41:26.472Z,136
2017-03-22T05:42:07.053Z,148
2017-03-22T05:42:47.639Z,160
2017-03-22T05:43:28.215Z,168
2017-03-22T05:44:08.793Z,164
2017-03-22T05:44:49.326Z,164
2017-03-22T05:45:29.905Z,168
2017-03-22T05:46:10.490Z,176
2017-03-22T05:48:28.418Z,224
2017-03-22T05:49:08.998Z,256
2017-03-22T05:49:49.572Z,284
2017-03-22T05:50:30.150Z,308
2017-03-22T05:51:10.747Z,336
2017-03-22T05:51:51.310Z,364
2017-03-22T05:52:31.890Z,396
2017-03-22T05:53:12.469Z,420
2017-03-22T05:53:53.042Z,444
2017-03-22T05:54:33.632Z,448
2017-03-22T05:55:14.210Z,476
2017-03-22T05:55:54.796Z,492
2017-03-22T05:56:35.366Z,488
2017-03-22T05:57:15.942Z,488
2017-03-22T05:57:56.525Z,476
2017-03-22T05:58:37.107Z,472
2017-03-22T05:59:17.689Z,492
2017-03-22T05:59:58.275Z,492
2017-03-22T06:00:38.845Z,492
2017-03-22T06:01:19.415Z,500
2017-03-22T06:01:59.996Z,520
2017-03-22T06:02:40.574Z,568
2017-03-22T06:03:21.147Z,568
2017-03-22T06:04:01.728Z,512
2017-03-22T06:04:42.303Z,496
2017-03-22T06:05:22.880Z,524
2017-03-22T06:06:03.450Z,548
2017-03-22T06:06:44.024Z,524
2017-03-22T06:07:24.594Z,516
2017-03-22T06:08:05.178Z,544
2017-03-22T06:08:45.742Z,556
2017-03-22T06:09:26.331Z,556
2017-03-22T06:10:06.911Z,540
2017-03-22T06:10:47.490Z,552
2017-03-22T06:11:28.063Z,596
2017-03-22T06:12:08.659Z,628
2017-03-22T06:12:49.230Z,700
2017-03-22T06:13:29.804Z,768
2017-03-22T06:14:10.380Z,860
2017-03-22T06:14:50.958Z,972
2017-03-22T06:15:31.539Z,1084
2017-03-22T06:16:12.109Z,1152
2017-03-22T06:16:52.682Z,1216
2017-03-22T06:17:33.261Z,1240
2017-03-22T06:18:13.833Z,1260
2017-03-22T06:19:09.102Z,1236
2017-03-22T06:19:49.685Z,1200
2017-03-22T06:20:30.244Z,1180
2017-03-22T06:21:10.824Z,1116
2017-03-22T06:21:51.384Z,1052
2017-03-22T06:22:31.956Z,976
2017-03-22T06:23:12.538Z,912
2017-03-22T06:23:53.117Z,872
2017-03-22T06:24:33.700Z,844
2017-03-22T06:25:14.274Z,812
2017-03-22T06:25:54.857Z,772
2017-03-22T06:26:35.429Z,748
2017-03-22T06:28:53.356Z,780
2017-03-22T06:29:33.936Z,784
2017-03-22T06:30:14.521Z,772
2017-03-22T06:30:55.095Z,792
2017-03-22T06:31:35.669Z,812
2017-03-22T06:32:16.255Z,828
2017-03-22T06:34:49.439Z,988
2017-03-22T06:35:30.014Z,1020
2017-03-22T06:36:10.587Z,1060
2017-03-22T06:36:51.165Z,1084
2017-03-22T06:37:31.743Z,1108
2017-03-22T06:38:12.340Z,1148
2017-03-22T06:38:52.888Z,1188
2017-03-22T06:39:33.477Z,1232
2017-03-22T06:40:14.046Z,1268
2017-03-22T06:40:54.625Z,1320
2017-03-22T06:41:35.206Z,1336
2017-03-22T06:42:15.783Z,1372
2017-03-22T06:42:56.366Z,1336
2017-03-22T06:43:36.939Z,1288
2017-03-22T06:44:17.503Z,1296
2017-03-22T06:44:58.086Z,1236
2017-03-22T06:45:38.686Z,1160
2017-03-22T06:46:19.253Z,1136
2017-03-22T06:46:59.831Z,1136
2017-03-22T06:47:40.408Z,1124
2017-03-22T06:48:20.982Z,1060
2017-03-22T06:49:01.564Z,1024
2017-03-22T06:49:42.138Z,1012
2017-03-22T06:50:22.717Z,1004
2017-03-22T06:51:03.301Z,1020
2017-03-22T06:51:43.869Z,1016
2017-03-22T06:52:39.111Z,1028
2017-03-22T06:53:19.692Z,1012
2017-03-22T06:54:00.276Z,1004
2017-03-22T06:54:40.860Z,996
2017-03-22T06:55:21.434Z,960
2017-03-22T06:56:02.017Z,916
2017-03-22T06:56:42.586Z,920
2017-03-22T06:57:23.161Z,936
2017-03-22T06:58:03.748Z,944
2017-03-22T06:58:44.326Z,952
2017-03-22T06:59:24.896Z,944
2017-03-22T07:00:05.490Z,936
2017-03-22T07:00:46.075Z,968
2017-03-22T07:01:26.653Z,1036
2017-03-22T07:03:24.370Z,1136
2017-03-22T07:04:04.939Z,1140
2017-03-22T07:04:45.519Z,1136
2017-03-22T07:05:26.090Z,1108
2017-03-22T07:06:06.664Z,1068
2017-03-22T07:06:47.257Z,1084
2017-03-22T07:07:27.827Z,1056
2017-03-22T07:08:08.406Z,980
2017-03-22T07:08:48.993Z,960
2017-03-22T07:09:29.569Z,964
2017-03-22T07:10:10.152Z,972
2017-03-22T07:10:50.734Z,968
2017-03-22T07:11:31.316Z,948
2017-03-22T07:12:11.891Z,932
2017-03-22T07:12:52.466Z,908
2017-03-22T07:13:33.044Z,892
2017-03-22T07:14:13.626Z,900
2017-03-22T07:14:54.209Z,912
2017-03-22T07:15:34.795Z,912
2017-03-22T07:16:15.369Z,956
2017-03-22T07:16:55.951Z,984
2017-03-22T07:17:36.533Z,968
2017-03-22T07:18:17.121Z,964
2017-03-22T07:18:57.701Z,960
2017-03-22T07:19:38.279Z,976
2017-03-22T07:20:18.859Z,996
2017-03-22T07:20:59.440Z,984
2017-03-22T07:21:40.019Z,992
2017-03-22T07:22:20.606Z,960
2017-03-22T07:23:01.192Z,928
2017-03-22T07:23:41.767Z,944
2017-03-22T07:24:22.349Z,968
2017-03-22T07:25:02.927Z,1008
2017-03-22T07:25:43.509Z,1056
2017-03-22T07:26:24.094Z,1056
2017-03-22T07:27:04.673Z,1088
2017-03-22T07:27:45.253Z,1156
2017-03-22T07:28:25.835Z,1192
2017-03-22T07:29:06.420Z,1216
2017-03-22T07:29:47.000Z,1248
2017-03-22T07:30:27.578Z,1276
2017-03-22T07:31:22.786Z,1304
2017-03-22T07:32:03.370Z,1372
2017-03-22T07:32:43.948Z,1372
2017-03-22T07:33:24.528Z,1396
2017-03-22T07:34:05.102Z,1460
2017-03-22T07:34:45.682Z,1484
2017-03-22T07:35:26.256Z,1516
2017-03-22T07:36:06.844Z,1636
2017-03-22T07:36:47.419Z,1740
2017-03-22T07:37:28.010Z,1792
2017-03-22T07:38:08.591Z,1824
2017-03-22T07:38:49.168Z,1940
2017-03-22T07:39:29.751Z,2100
2017-03-22T07:40:10.336Z,2220
2017-03-22T07:40:50.917Z,2252
2017-03-22T07:41:46.032Z,2288
2017-03-22T07:42:26.606Z,2292
2017-03-22T07:43:07.186Z,2240
2017-03-22T07:43:47.758Z,2224
2017-03-22T07:44:28.339Z,2192
2017-03-22T07:45:08.913Z,2132
2017-03-22T07:45:49.504Z,2136
2017-03-22T07:46:30.065Z,2092
2017-03-22T07:47:10.644Z,2084
2017-03-22T07:47:51.265Z,2080
2017-03-22T07:48:31.814Z,2084
2017-03-22T07:49:12.393Z,2108
2017-03-22T07:49:52.963Z,2124
2017-03-22T07:50:33.547Z,2132
2017-03-22T07:51:14.125Z,2160
2017-03-22T07:51:54.707Z,2188
2017-03-22T07:52:35.286Z,2228
2017-03-22T07:55:08.474Z,2244
2017-03-22T07:55:49.048Z,2268
2017-03-22T07:56:29.634Z,2300
2017-03-22T07:57:10.196Z,2316
2017-03-22T07:57:50.784Z,2372
2017-03-22T07:58:31.350Z,2392
2017-03-22T07:59:11.928Z,2420
2017-03-22T07:59:52.506Z,2516
2017-03-22T08:00:33.088Z,2616
2017-03-22T08:01:13.672Z,2728
2017-03-22T08:01:54.252Z,2816
2017-03-22T08:02:34.830Z,2860
2017-03-22T08:03:15.406Z,2888
2017-03-22T08:03:55.988Z,2920
2017-03-22T08:04:36.570Z,2984
2017-03-22T08:05:17.147Z,2848
2017-03-22T08:05:57.725Z,2668
2017-03-22T08:06:38.307Z,2504
2017-03-22T08:07:18.875Z,2328
2017-03-22T08:07:59.441Z,2292
2017-03-22T08:08:40.024Z,2316
2017-03-22T08:09:20.605Z,2352
2017-03-22T08:10:01.186Z,2360
2017-03-22T08:10:41.759Z,2372
2017-03-22T08:11:22.348Z,2412
2017-03-22T08:12:02.922Z,2448
2017-03-22T08:12:43.513Z,2448
2017-03-22T08:13:24.094Z,2512
2017-03-22T08:14:04.674Z,2588
2017-03-22T08:14:45.256Z,2616
2017-03-22T08:15:25.838Z,2516
2017-03-22T08:16:06.417Z,2516
2017-03-22T08:16:47.000Z,2624
2017-03-22T08:17:27.568Z,2704
2017-03-22T08:18:08.151Z,2772
2017-03-22T08:18:48.724Z,2824
2017-03-22T08:19:29.307Z,2864
2017-03-22T08:20:09.883Z,2924
2017-03-22T08:20:50.468Z,3000
2017-03-22T08:21:31.050Z,2988
2017-03-22T08:22:11.614Z,2952
2017-03-22T08:22:52.198Z,2968
2017-03-22T08:23:32.779Z,2996
2017-03-22T08:24:13.352Z,2988
2017-03-22T08:24:53.920Z,2924
2017-03-22T08:25:34.500Z,2852
2017-03-22T08:26:15.084Z,2796
2017-03-22T08:26:55.664Z,2764
2017-03-22T08:27:36.239Z,2764
2017-03-22T08:28:16.817Z,2812
2017-03-22T08:28:57.406Z,2884
2017-03-22T08:29:37.988Z,2820
2017-03-22T08:30:18.565Z,2776
2017-03-22T08:30:59.137Z,2780
2017-03-22T08:31:39.724Z,2812
2017-03-22T08:32:20.304Z,2868
2017-03-22T08:33:00.893Z,3008
2017-03-22T08:33:41.479Z,3108
2017-03-22T08:34:22.057Z,3128
2017-03-22T08:35:02.636Z,3208
2017-03-22T08:35:43.222Z,3208
2017-03-22T08:36:23.806Z,3232
2017-03-22T08:37:04.384Z,3344
2017-03-22T08:37:44.971Z,3396
2017-03-22T08:38:25.551Z,3348
2017-03-22T08:40:43.493Z,3436
2017-03-22T08:41:24.081Z,3468
2017-03-22T08:42:04.670Z,3520
2017-03-22T08:42:45.249Z,3680
2017-03-22T08:43:25.826Z,3756
2017-03-22T08:44:06.408Z,3728
2017-03-22T08:44:46.985Z,3696
2017-03-22T08:45:27.569Z,3700
2017-03-22T08:46:08.142Z,3708
2017-03-22T08:46:48.729Z,3700
2017-03-22T08:48:46.439Z,3756
2017-03-22T08:49:27.030Z,3752
2017-03-22T08:50:07.608Z,3792
2017-03-22T08:50:48.189Z,3800
2017-03-22T08:51:28.772Z,3772
2017-03-22T08:52:09.344Z,3856
2017-03-22T08:52:49.929Z,3932
2017-03-22T08:53:30.499Z,4076
2017-03-22T08:54:11.081Z,4088
2017-03-22T08:54:51.666Z,4176
2017-03-22T08:55:32.246Z,4248
2017-03-22T08:56:12.822Z,4208
2017-03-22T08:56:53.413Z,4208
2017-03-22T08:57:34.000Z,4268
2017-03-22T08:58:14.580Z,4240
2017-03-22T08:58:55.155Z,4196
2017-03-22T08:59:35.724Z,4392
2017-03-22T09:00:16.309Z,4376
2017-03-22T09:00:56.878Z,4064
2017-03-22T09:01:37.462Z,3948
2017-03-22T09:02:18.034Z,3952
2017-03-22T09:02:58.617Z,4060
2017-03-22T09:03:39.194Z,4076
2017-03-22T09:04:19.773Z,4020
2017-03-22T09:05:00.352Z,4020
2017-03-22T09:05:40.940Z,3956
2017-03-22T09:06:21.532Z,3936
2017-03-22T09:07:02.108Z,4096
2017-03-22T09:07:42.689Z,4228
2017-03-22T09:08:23.264Z,4268
2017-03-22T09:09:03.849Z,4192
2017-03-22T09:09:44.434Z,3916
2017-03-22T09:10:25.015Z,3844
2017-03-22T09:11:05.598Z,3988
2017-03-22T09:13:23.539Z,3756
2017-03-22T09:14:04.126Z,3708
2017-03-22T09:14:44.695Z,3704
2017-03-22T09:15:25.281Z,3632
2017-03-22T09:16:05.859Z,3568
2017-03-22T09:16:46.439Z,3676
2017-03-22T09:17:27.013Z,3800
2017-03-22T09:18:07.598Z,3992
2017-03-22T09:18:48.178Z,4152
2017-03-22T09:19:28.761Z,4132
2017-03-22T09:20:09.332Z,4044
2017-03-22T09:22:42.536Z,4108
2017-03-22T09:23:23.118Z,4132
2017-03-22T09:24:03.679Z,4280
2017-03-22T09:24:44.265Z,4508
2017-03-22T09:25:24.832Z,4600
2017-03-22T09:26:05.410Z,4456
2017-03-22T09:26:46.007Z,4276
2017-03-22T09:27:26.590Z,4172
2017-03-22T09:28:07.159Z,4132
2017-03-22T09:29:02.427Z,4172
2017-03-22T09:29:43.005Z,4216
2017-03-22T09:30:23.581Z,4176
2017-03-22T09:31:04.169Z,4132
2017-03-22T09:31:44.747Z,4068
2017-03-22T09:32:25.325Z,3976
2017-03-22T09:33:05.913Z,3884
2017-03-22T09:33:46.492Z,3792
2017-03-22T09:34:27.077Z,3740
2017-03-22T09:35:07.659Z,3708
2017-03-22T09:35:48.248Z,3660
2017-03-22T09:36:28.819Z,3592
2017-03-22T09:37:09.403Z,3512
2017-03-22T09:37:49.988Z,3400
2017-03-22T09:38:30.568Z,3312
2017-03-22T09:39:11.145Z,3256
2017-03-22T09:39:51.732Z,3204
2017-03-22T09:40:32.315Z,3088
2017-03-22T09:41:12.892Z,2972
2017-03-22T09:41:53.482Z,2876
2017-03-22T09:42:34.065Z,2820
2017-03-22T09:43:14.648Z,2772
2017-03-22T09:45:32.581Z,2476
2017-03-22T09:46:13.158Z,2388
2017-03-22T09:46:53.732Z,2312
2017-03-22T09:47:34.321Z,2264
2017-03-22T09:48:14.904Z,2272
2017-03-22T09:48:55.483Z,2324
2017-03-22T09:49:36.067Z,2396
2017-03-22T09:50:16.654Z,2488
2017-03-22T09:50:57.228Z,2612
2017-03-22T09:51:37.803Z,2756
2017-03-22T09:52:18.377Z,2936
2017-03-22T09:54:51.555Z,3356
2017-03-22T09:55:32.136Z,3456
2017-03-22T09:56:12.722Z,3564
2017-03-22T09:56:53.290Z,3756
2017-03-22T09:57:33.856Z,3984
2017-03-22T09:58:14.422Z,4260
2017-03-22T09:58:55.005Z,4520
2017-03-22T09:59:35.589Z,4752
2017-03-22T10:00:16.155Z,4992
2017-03-22T10:00:56.730Z,5252
2017-03-22T10:01:37.303Z,5592
2017-03-22T10:02:17.887Z,5820
2017-03-22T10:02:58.462Z,5528
2017-03-22T10:03:39.041Z,5352
2017-03-22T10:04:19.616Z,5612
2017-03-22T10:05:00.185Z,5984
2017-03-22T10:05:40.771Z,6032
2017-03-22T10:06:21.338Z,5588
2017-03-22T10:07:01.929Z,5052
2017-03-22T10:07:42.497Z,4624
2017-03-22T10:08:23.079Z,4316
2017-03-22T10:09:03.652Z,4052